EAG5519 SBFZ-SBTE
Flight info
| Callsign | EAG5519 |
|---|---|
| Flight time | 0h 48m |
| Altitude | 34000 |
| Route | PUBOR UZ66 TNA |
| Aircraft | A20N/M-SDE2E3FGHIRWXY/LB1 |
Departure
| Time | 2026-05-08 00:43 |
|---|---|
| Airport | Pinto Martins International Airport (SBFZ) |
Arrival
| Time | 2026-05-08 01:31 |
|---|---|
| Airport | Senador Petrônio Portela Airport (SBTE) |
| Time | Latitude | Longitude | Altitude | Speed | Heading |
|---|---|---|---|---|---|
| 2026-05-08 00:33 | -3.77777 | -38.54325 | 93 ft | 0 kts | 169° |
| 2026-05-08 00:36 | -3.77757 | -38.54329 | 92 ft | 4 kts | 169° |
| 2026-05-08 00:37 | -3.77730 | -38.54334 | 91 ft | 4 kts | 169° |
| 2026-05-08 00:37 | -3.77703 | -38.54339 | 92 ft | 4 kts | 169° |
| 2026-05-08 00:37 | -3.77676 | -38.54344 | 91 ft | 4 kts | 170° |
| 2026-05-08 00:38 | -3.77626 | -38.54350 | 91 ft | 2 kts | 187° |
| 2026-05-08 00:38 | -3.77613 | -38.54345 | 91 ft | 2 kts | 252° |
| 2026-05-08 00:38 | -3.77611 | -38.54334 | 91 ft | 2 kts | 270° |
| 2026-05-08 00:38 | -3.77611 | -38.54338 | 91 ft | 2 kts | 270° |
| 2026-05-08 00:39 | -3.77611 | -38.54344 | 91 ft | 0 kts | 270° |
| 2026-05-08 00:40 | -3.77611 | -38.54345 | 91 ft | 1 kts | 270° |
| 2026-05-08 00:40 | -3.77606 | -38.54353 | 94 ft | 2 kts | 300° |
| 2026-05-08 00:40 | -3.77586 | -38.54367 | 91 ft | 5 kts | 337° |
| 2026-05-08 00:40 | -3.77542 | -38.54377 | 92 ft | 8 kts | 348° |
| 2026-05-08 00:41 | -3.77474 | -38.54386 | 91 ft | 11 kts | 4° |
| 2026-05-08 00:41 | -3.77392 | -38.54368 | 92 ft | 12 kts | 15° |
| 2026-05-08 00:41 | -3.77347 | -38.54356 | 93 ft | 0 kts | 21° |
| 2026-05-08 00:41 | -3.77345 | -38.54352 | 93 ft | 1 kts | 49° |
| 2026-05-08 00:42 | -3.77345 | -38.54345 | 95 ft | 1 kts | 86° |
| 2026-05-08 00:42 | -3.77347 | -38.54333 | 93 ft | 2 kts | 99° |
| 2026-05-08 00:42 | -3.77359 | -38.54283 | 93 ft | 25 kts | 104° |
| 2026-05-08 00:42 | -3.77477 | -38.53841 | 93 ft | 104 kts | 104° |
| 2026-05-08 00:43 | -3.77721 | -38.52927 | 118 ft | 163 kts | 105° |
| 2026-05-08 00:43 | -3.78032 | -38.51779 | 640 ft | 179 kts | 106° |
| 2026-05-08 00:43 | -3.78422 | -38.50533 | 1213 ft | 192 kts | 108° |
| 2026-05-08 00:43 | -3.78848 | -38.49231 | 1869 ft | 203 kts | 108° |
| 2026-05-08 00:44 | -3.79606 | -38.47966 | 2384 ft | 225 kts | 135° |
| 2026-05-08 00:44 | -3.81033 | -38.47184 | 2912 ft | 249 kts | 165° |
| 2026-05-08 00:44 | -3.82807 | -38.47123 | 3665 ft | 259 kts | 184° |
| 2026-05-08 00:44 | -3.84602 | -38.47382 | 4645 ft | 263 kts | 187° |
| 2026-05-08 00:45 | -3.86433 | -38.47703 | 5062 ft | 269 kts | 188° |
| 2026-05-08 00:45 | -3.88269 | -38.48004 | 5177 ft | 266 kts | 187° |
| 2026-05-08 00:45 | -3.90093 | -38.48270 | 5280 ft | 265 kts | 186° |
| 2026-05-08 00:45 | -3.91936 | -38.48516 | 5390 ft | 268 kts | 185° |
| 2026-05-08 00:46 | -3.93788 | -38.48750 | 5486 ft | 268 kts | 185° |
| 2026-05-08 00:46 | -3.95567 | -38.49289 | 5587 ft | 273 kts | 208° |
| 2026-05-08 00:46 | -3.96941 | -38.50628 | 5984 ft | 284 kts | 237° |
| 2026-05-08 00:46 | -3.97582 | -38.52508 | 6878 ft | 289 kts | 256° |
| 2026-05-08 00:47 | -3.97977 | -38.54494 | 7728 ft | 293 kts | 257° |
| 2026-05-08 00:47 | -3.98370 | -38.56516 | 8520 ft | 299 kts | 257° |
| 2026-05-08 00:47 | -3.98766 | -38.58570 | 9348 ft | 303 kts | 257° |
| 2026-05-08 00:47 | -3.99172 | -38.60662 | 10119 ft | 309 kts | 257° |
| 2026-05-08 00:48 | -3.99595 | -38.62834 | 10521 ft | 328 kts | 257° |
| 2026-05-08 00:48 | -4.00049 | -38.65154 | 10787 ft | 350 kts | 258° |
| 2026-05-08 00:48 | -4.00526 | -38.67591 | 11351 ft | 359 kts | 258° |
| 2026-05-08 00:48 | -4.01005 | -38.70049 | 12100 ft | 362 kts | 258° |
| 2026-05-08 00:49 | -4.01489 | -38.72532 | 12862 ft | 364 kts | 258° |
| 2026-05-08 00:49 | -4.01976 | -38.75032 | 13598 ft | 367 kts | 258° |
| 2026-05-08 00:49 | -4.02467 | -38.77554 | 14248 ft | 371 kts | 259° |
| 2026-05-08 00:49 | -4.02962 | -38.80104 | 14867 ft | 374 kts | 259° |
| 2026-05-08 00:50 | -4.03459 | -38.82677 | 15478 ft | 378 kts | 259° |
| 2026-05-08 00:50 | -4.03959 | -38.85266 | 16078 ft | 381 kts | 259° |
| 2026-05-08 00:50 | -4.04465 | -38.87887 | 16666 ft | 385 kts | 259° |
| 2026-05-08 00:50 | -4.04968 | -38.90498 | 17231 ft | 388 kts | 259° |
| 2026-05-08 00:51 | -4.05432 | -38.93172 | 17778 ft | 392 kts | 263° |
| 2026-05-08 00:51 | -4.05788 | -38.95922 | 18324 ft | 395 kts | 263° |
| 2026-05-08 00:51 | -4.06140 | -38.98615 | 18815 ft | 397 kts | 263° |
| 2026-05-08 00:51 | -4.06503 | -39.01366 | 19303 ft | 400 kts | 263° |
| 2026-05-08 00:52 | -4.06868 | -39.04137 | 19793 ft | 402 kts | 263° |
| 2026-05-08 00:52 | -4.07235 | -39.06917 | 20275 ft | 404 kts | 263° |
| 2026-05-08 00:52 | -4.07603 | -39.09713 | 20750 ft | 407 kts | 263° |
| 2026-05-08 00:52 | -4.07974 | -39.12530 | 21226 ft | 410 kts | 264° |
| 2026-05-08 00:53 | -4.08348 | -39.15369 | 21695 ft | 412 kts | 264° |
| 2026-05-08 00:53 | -4.08723 | -39.18221 | 22167 ft | 415 kts | 264° |
| 2026-05-08 00:53 | -4.09106 | -39.21132 | 22637 ft | 417 kts | 264° |
| 2026-05-08 00:53 | -4.09447 | -39.23732 | 23051 ft | 420 kts | 264° |
| 2026-05-08 00:54 | -4.09834 | -39.26676 | 23512 ft | 422 kts | 264° |
| 2026-05-08 00:54 | -4.10219 | -39.29607 | 23896 ft | 424 kts | 264° |
| 2026-05-08 00:54 | -4.10602 | -39.32527 | 24287 ft | 426 kts | 264° |
| 2026-05-08 00:54 | -4.10991 | -39.35486 | 24682 ft | 428 kts | 264° |
| 2026-05-08 00:55 | -4.11379 | -39.38441 | 25044 ft | 430 kts | 264° |
| 2026-05-08 00:55 | -4.11770 | -39.41423 | 25415 ft | 432 kts | 264° |
| 2026-05-08 00:55 | -4.12161 | -39.44409 | 25778 ft | 433 kts | 263° |
| 2026-05-08 00:55 | -4.12558 | -39.47432 | 26221 ft | 432 kts | 263° |
| 2026-05-08 00:56 | -4.12950 | -39.50424 | 26576 ft | 434 kts | 263° |
| 2026-05-08 00:56 | -4.13338 | -39.53393 | 26878 ft | 437 kts | 263° |
| 2026-05-08 00:56 | -4.13734 | -39.56415 | 27205 ft | 438 kts | 263° |
| 2026-05-08 00:56 | -4.14130 | -39.59450 | 27532 ft | 440 kts | 263° |
| 2026-05-08 00:57 | -4.14527 | -39.62490 | 27843 ft | 442 kts | 263° |
| 2026-05-08 00:57 | -4.14927 | -39.65550 | 28137 ft | 444 kts | 263° |
| 2026-05-08 00:57 | -4.15328 | -39.68621 | 28428 ft | 445 kts | 263° |
| 2026-05-08 00:57 | -4.15730 | -39.71697 | 28725 ft | 447 kts | 263° |
| 2026-05-08 00:58 | -4.16134 | -39.74791 | 28987 ft | 449 kts | 263° |
| 2026-05-08 00:58 | -4.16540 | -39.77897 | 29233 ft | 451 kts | 263° |
| 2026-05-08 00:58 | -4.16952 | -39.81056 | 29521 ft | 452 kts | 263° |
| 2026-05-08 00:58 | -4.17487 | -39.84132 | 29766 ft | 455 kts | 257° |
| 2026-05-08 00:59 | -4.18341 | -39.87169 | 30020 ft | 456 kts | 253° |
| 2026-05-08 00:59 | -4.19280 | -39.90262 | 30240 ft | 458 kts | 253° |
| 2026-05-08 00:59 | -4.20189 | -39.93281 | 30444 ft | 460 kts | 253° |
| 2026-05-08 00:59 | -4.21124 | -39.96401 | 30658 ft | 463 kts | 254° |
| 2026-05-08 01:00 | -4.22040 | -39.99455 | 30871 ft | 465 kts | 254° |
| 2026-05-08 01:00 | -4.22899 | -40.02322 | 31083 ft | 466 kts | 254° |
| 2026-05-08 01:00 | -4.23830 | -40.05426 | 31392 ft | 465 kts | 254° |
| 2026-05-08 01:00 | -4.24757 | -40.08517 | 31693 ft | 465 kts | 254° |
| 2026-05-08 01:01 | -4.25679 | -40.11590 | 31968 ft | 466 kts | 254° |
| 2026-05-08 01:01 | -4.26602 | -40.14671 | 32249 ft | 466 kts | 254° |
| 2026-05-08 01:01 | -4.27548 | -40.17827 | 32543 ft | 466 kts | 254° |
| 2026-05-08 01:01 | -4.28481 | -40.20938 | 32822 ft | 466 kts | 254° |
| 2026-05-08 01:02 | -4.29412 | -40.24043 | 33097 ft | 466 kts | 254° |
| 2026-05-08 01:02 | -4.30344 | -40.27155 | 33385 ft | 466 kts | 254° |
| 2026-05-08 01:02 | -4.31274 | -40.30257 | 33659 ft | 466 kts | 254° |
| 2026-05-08 01:02 | -4.32207 | -40.33371 | 33889 ft | 466 kts | 254° |
| 2026-05-08 01:03 | -4.33137 | -40.36477 | 33962 ft | 465 kts | 254° |
| 2026-05-08 01:03 | -4.34679 | -40.41628 | 33977 ft | 464 kts | 254° |
| 2026-05-08 01:04 | -4.36528 | -40.47800 | 33980 ft | 461 kts | 254° |
| 2026-05-08 01:04 | -4.38661 | -40.54931 | 33983 ft | 461 kts | 254° |
| 2026-05-08 01:05 | -4.40204 | -40.60090 | 33990 ft | 461 kts | 254° |
| 2026-05-08 01:05 | -4.42339 | -40.67228 | 33991 ft | 461 kts | 254° |
| 2026-05-08 01:06 | -4.43877 | -40.72374 | 33994 ft | 459 kts | 254° |
| 2026-05-08 01:06 | -4.45707 | -40.78497 | 33993 ft | 459 kts | 254° |
| 2026-05-08 01:07 | -4.47538 | -40.84624 | 33996 ft | 459 kts | 254° |
| 2026-05-08 01:07 | -4.49370 | -40.90756 | 33995 ft | 459 kts | 254° |
| 2026-05-08 01:08 | -4.51192 | -40.96861 | 33992 ft | 456 kts | 254° |
| 2026-05-08 01:08 | -4.53009 | -41.02948 | 33643 ft | 457 kts | 254° |
| 2026-05-08 01:08 | -4.53918 | -41.05995 | 33386 ft | 456 kts | 254° |
| 2026-05-08 01:09 | -4.54824 | -41.09033 | 33140 ft | 456 kts | 254° |
| 2026-05-08 01:09 | -4.55737 | -41.12092 | 32885 ft | 457 kts | 254° |
| 2026-05-08 01:09 | -4.56648 | -41.15143 | 32645 ft | 457 kts | 254° |
| 2026-05-08 01:09 | -4.57559 | -41.18194 | 32394 ft | 457 kts | 254° |
| 2026-05-08 01:10 | -4.58472 | -41.21248 | 32157 ft | 458 kts | 254° |
| 2026-05-08 01:10 | -4.59382 | -41.24298 | 31915 ft | 456 kts | 254° |
| 2026-05-08 01:10 | -4.60291 | -41.27342 | 31668 ft | 455 kts | 254° |
| 2026-05-08 01:10 | -4.61199 | -41.30384 | 31258 ft | 457 kts | 253° |
| 2026-05-08 01:11 | -4.62109 | -41.33435 | 30633 ft | 458 kts | 253° |
| 2026-05-08 01:11 | -4.63020 | -41.36487 | 30014 ft | 456 kts | 253° |
| 2026-05-08 01:11 | -4.63922 | -41.39511 | 29424 ft | 450 kts | 253° |
| 2026-05-08 01:11 | -4.64814 | -41.42497 | 28847 ft | 444 kts | 253° |
| 2026-05-08 01:12 | -4.65692 | -41.45439 | 28279 ft | 439 kts | 253° |
| 2026-05-08 01:12 | -4.66561 | -41.48351 | 27715 ft | 434 kts | 253° |
| 2026-05-08 01:12 | -4.67422 | -41.51239 | 27159 ft | 429 kts | 254° |
| 2026-05-08 01:12 | -4.68271 | -41.54085 | 26590 ft | 425 kts | 254° |
| 2026-05-08 01:13 | -4.69114 | -41.56914 | 26033 ft | 421 kts | 254° |
| 2026-05-08 01:13 | -4.69949 | -41.59717 | 25479 ft | 418 kts | 254° |
| 2026-05-08 01:13 | -4.70780 | -41.62505 | 24904 ft | 416 kts | 254° |
| 2026-05-08 01:13 | -4.71603 | -41.65268 | 24348 ft | 413 kts | 254° |
| 2026-05-08 01:14 | -4.72417 | -41.68002 | 23806 ft | 411 kts | 255° |
| 2026-05-08 01:14 | -4.73233 | -41.70740 | 23195 ft | 409 kts | 255° |
| 2026-05-08 01:14 | -4.74040 | -41.73451 | 22699 ft | 403 kts | 255° |
| 2026-05-08 01:14 | -4.74836 | -41.76122 | 22165 ft | 398 kts | 255° |
| 2026-05-08 01:15 | -4.75625 | -41.78770 | 21622 ft | 395 kts | 254° |
| 2026-05-08 01:15 | -4.76408 | -41.81394 | 21093 ft | 391 kts | 254° |
| 2026-05-08 01:15 | -4.77185 | -41.84001 | 20559 ft | 388 kts | 254° |
| 2026-05-08 01:15 | -4.77955 | -41.86584 | 20027 ft | 386 kts | 254° |
| 2026-05-08 01:16 | -4.78722 | -41.89157 | 19495 ft | 384 kts | 254° |
| 2026-05-08 01:16 | -4.79483 | -41.91713 | 18945 ft | 383 kts | 254° |
| 2026-05-08 01:16 | -4.80244 | -41.94268 | 18402 ft | 382 kts | 254° |
| 2026-05-08 01:16 | -4.80989 | -41.96769 | 17831 ft | 380 kts | 254° |
| 2026-05-08 01:17 | -4.81752 | -41.99331 | 17332 ft | 376 kts | 254° |
| 2026-05-08 01:17 | -4.82497 | -42.01831 | 16819 ft | 373 kts | 254° |
| 2026-05-08 01:17 | -4.83234 | -42.04308 | 16296 ft | 370 kts | 253° |
| 2026-05-08 01:17 | -4.83968 | -42.06774 | 15783 ft | 368 kts | 253° |
| 2026-05-08 01:18 | -4.84682 | -42.09174 | 15278 ft | 366 kts | 253° |
| 2026-05-08 01:18 | -4.85408 | -42.11616 | 14765 ft | 365 kts | 253° |
| 2026-05-08 01:18 | -4.86122 | -42.14019 | 14263 ft | 364 kts | 253° |
| 2026-05-08 01:18 | -4.86821 | -42.16455 | 13738 ft | 363 kts | 256° |
| 2026-05-08 01:19 | -4.87232 | -42.18941 | 13208 ft | 361 kts | 265° |
| 2026-05-08 01:19 | -4.87280 | -42.21451 | 12707 ft | 359 kts | 273° |
| 2026-05-08 01:19 | -4.87111 | -42.23937 | 12207 ft | 357 kts | 274° |
| 2026-05-08 01:19 | -4.86954 | -42.26414 | 11708 ft | 355 kts | 273° |
| 2026-05-08 01:20 | -4.86803 | -42.28875 | 11209 ft | 353 kts | 273° |
| 2026-05-08 01:20 | -4.86654 | -42.31332 | 10715 ft | 352 kts | 273° |
| 2026-05-08 01:20 | -4.86505 | -42.33773 | 10307 ft | 348 kts | 273° |
| 2026-05-08 01:20 | -4.86361 | -42.36132 | 10176 ft | 335 kts | 273° |
| 2026-05-08 01:21 | -4.86220 | -42.38416 | 10063 ft | 322 kts | 273° |
| 2026-05-08 01:21 | -4.86085 | -42.40619 | 9697 ft | 312 kts | 273° |
| 2026-05-08 01:21 | -4.85954 | -42.42763 | 9535 ft | 308 kts | 274° |
| 2026-05-08 01:21 | -4.85820 | -42.44922 | 9255 ft | 313 kts | 274° |
| 2026-05-08 01:22 | -4.85685 | -42.47113 | 8867 ft | 315 kts | 273° |
| 2026-05-08 01:22 | -4.85549 | -42.49309 | 8457 ft | 315 kts | 273° |
| 2026-05-08 01:22 | -4.85415 | -42.51482 | 8161 ft | 310 kts | 273° |
| 2026-05-08 01:22 | -4.85282 | -42.53623 | 7791 ft | 306 kts | 273° |
| 2026-05-08 01:23 | -4.85151 | -42.55742 | 7261 ft | 303 kts | 273° |
| 2026-05-08 01:23 | -4.85022 | -42.57822 | 6881 ft | 294 kts | 273° |
| 2026-05-08 01:23 | -4.84897 | -42.59840 | 6510 ft | 286 kts | 272° |
| 2026-05-08 01:23 | -4.84775 | -42.61807 | 6128 ft | 279 kts | 272° |
| 2026-05-08 01:24 | -4.84657 | -42.63731 | 5770 ft | 275 kts | 272° |
| 2026-05-08 01:24 | -4.84539 | -42.65651 | 5408 ft | 276 kts | 272° |
| 2026-05-08 01:24 | -4.84421 | -42.67565 | 5043 ft | 276 kts | 272° |
| 2026-05-08 01:24 | -4.84302 | -42.69488 | 4673 ft | 276 kts | 272° |
| 2026-05-08 01:25 | -4.84183 | -42.71413 | 4297 ft | 277 kts | 272° |
| 2026-05-08 01:25 | -4.84064 | -42.73338 | 3928 ft | 277 kts | 272° |
| 2026-05-08 01:25 | -4.84160 | -42.75250 | 3562 ft | 274 kts | 256° |
| 2026-05-08 01:25 | -4.84815 | -42.77031 | 3193 ft | 271 kts | 241° |
| 2026-05-08 01:26 | -4.85663 | -42.78720 | 2820 ft | 271 kts | 241° |
| 2026-05-08 01:26 | -4.86494 | -42.80401 | 2571 ft | 264 kts | 242° |
| 2026-05-08 01:26 | -4.87277 | -42.82001 | 2426 ft | 247 kts | 242° |
| 2026-05-08 01:26 | -4.88230 | -42.83330 | 2274 ft | 226 kts | 215° |
| 2026-05-08 01:27 | -4.89567 | -42.83961 | 2142 ft | 204 kts | 186° |
| 2026-05-08 01:27 | -4.90891 | -42.83933 | 2090 ft | 179 kts | 171° |
| 2026-05-08 01:27 | -4.92054 | -42.83811 | 1930 ft | 158 kts | 172° |
| 2026-05-08 01:27 | -4.93091 | -42.83711 | 1866 ft | 144 kts | 172° |
| 2026-05-08 01:28 | -4.94060 | -42.83617 | 1846 ft | 137 kts | 171° |
| 2026-05-08 01:28 | -4.95015 | -42.83519 | 1842 ft | 138 kts | 171° |
| 2026-05-08 01:28 | -4.95975 | -42.83419 | 1787 ft | 139 kts | 171° |
| 2026-05-08 01:28 | -4.96928 | -42.83320 | 1629 ft | 137 kts | 171° |
| 2026-05-08 01:29 | -4.97881 | -42.83220 | 1455 ft | 138 kts | 171° |
| 2026-05-08 01:29 | -4.98831 | -42.83120 | 1287 ft | 137 kts | 172° |
| 2026-05-08 01:29 | -4.99783 | -42.83019 | 1129 ft | 138 kts | 172° |
| 2026-05-08 01:29 | -5.00740 | -42.82917 | 971 ft | 139 kts | 173° |
| 2026-05-08 01:30 | -5.01704 | -42.82823 | 812 ft | 140 kts | 174° |
| 2026-05-08 01:30 | -5.02669 | -42.82723 | 653 ft | 140 kts | 174° |
| 2026-05-08 01:30 | -5.03631 | -42.82631 | 503 ft | 139 kts | 174° |
| 2026-05-08 01:30 | -5.04585 | -42.82521 | 342 ft | 137 kts | 175° |
| 2026-05-08 01:31 | -5.05526 | -42.82424 | 214 ft | 129 kts | 173° |
| 2026-05-08 01:31 | -5.06094 | -42.82364 | 217 ft | 57 kts | 174° |
| 2026-05-08 01:31 | -5.06295 | -42.82343 | 214 ft | 11 kts | 173° |
| 2026-05-08 01:31 | -5.06366 | -42.82304 | 213 ft | 11 kts | 102° |
| 2026-05-08 01:32 | -5.06366 | -42.82263 | 213 ft | 0 kts | 89° |
| 2026-05-08 01:32 | -5.06366 | -42.82260 | 212 ft | 2 kts | 89° |
| 2026-05-08 01:33 | -5.06372 | -42.82230 | 216 ft | 4 kts | 105° |
| 2026-05-08 01:33 | -5.06370 | -42.82212 | 214 ft | 2 kts | 75° |
| 2026-05-08 01:33 | -5.06366 | -42.82186 | 216 ft | 3 kts | 82° |
| 2026-05-08 01:33 | -5.06365 | -42.82177 | 216 ft | 0 kts | 82° |